sensor_id;sensor_type;location;lat;lon;timestamp;P1;durP1;ratioP1;P2;durP2;ratioP2
12842;SDS011;35724;49.324;-123.118;2023-05-16T00:08:04;2.97;;;2.40;;
12842;SDS011;35724;49.324;-123.118;2023-05-16T00:18:13;3.33;;;2.60;;
12842;SDS011;35724;49.324;-123.118;2023-05-16T00:28:20;2.80;;;2.60;;
12842;SDS011;35724;49.324;-123.118;2023-05-16T00:38:28;2.60;;;2.40;;
12842;SDS011;35724;49.324;-123.118;2023-05-16T00:48:35;2.75;;;2.50;;
12842;SDS011;35724;49.324;-123.118;2023-05-16T00:58:44;2.33;;;2.13;;
12842;SDS011;35724;49.324;-123.118;2023-05-16T01:08:50;3.58;;;2.30;;
12842;SDS011;35724;49.324;-123.118;2023-05-16T01:19:01;2.35;;;2.15;;
12842;SDS011;35724;49.324;-123.118;2023-05-16T01:29:21;2.80;;;2.53;;
12842;SDS011;35724;49.324;-123.118;2023-05-16T01:39:31;3.10;;;2.50;;
12842;SDS011;35724;49.324;-123.118;2023-05-16T01:49:45;3.30;;;2.15;;
12842;SDS011;35724;49.324;-123.118;2023-05-16T01:59:56;3.33;;;2.40;;
12842;SDS011;35724;49.324;-123.118;2023-05-16T02:10:10;2.55;;;2.22;;
12842;SDS011;35724;49.324;-123.118;2023-05-16T02:20:18;5.43;;;3.53;;
12842;SDS011;35724;49.324;-123.118;2023-05-16T02:30:28;7.47;;;2.95;;
12842;SDS011;35724;49.324;-123.118;2023-05-16T02:40:35;4.28;;;2.63;;
12842;SDS011;35724;49.324;-123.118;2023-05-16T02:50:44;3.13;;;2.40;;
12842;SDS011;35724;49.324;-123.118;2023-05-16T03:00:52;2.60;;;2.40;;
12842;SDS011;35724;49.324;-123.118;2023-05-16T03:11:03;2.42;;;2.22;;
12842;SDS011;35724;49.324;-123.118;2023-05-16T03:32:42;2.88;;;2.55;;
12842;SDS011;35724;49.324;-123.118;2023-05-16T03:42:58;4.38;;;3.72;;
12842;SDS011;35724;49.324;-123.118;2023-05-16T03:53:10;5.15;;;3.75;;
12842;SDS011;35724;49.324;-123.118;2023-05-16T04:03:17;3.80;;;3.38;;
12842;SDS011;35724;49.324;-123.118;2023-05-16T04:25:30;3.25;;;2.70;;
12842;SDS011;35724;49.324;-123.118;2023-05-16T04:35:46;3.10;;;2.80;;
12842;SDS011;35724;49.324;-123.118;2023-05-16T04:45:54;2.60;;;2.40;;
12842;SDS011;35724;49.324;-123.118;2023-05-16T04:56:05;2.97;;;2.78;;
12842;SDS011;35724;49.324;-123.118;2023-05-16T05:27:31;3.60;;;3.30;;
12842;SDS011;35724;49.324;-123.118;2023-05-16T05:37:38;4.07;;;2.92;;
12842;SDS011;35724;49.324;-123.118;2023-05-16T05:47:46;3.13;;;2.83;;
12842;SDS011;35724;49.324;-123.118;2023-05-16T05:57:53;7.80;;;7.03;;
12842;SDS011;35724;49.324;-123.118;2023-05-16T06:44:31;4.72;;;4.32;;
12842;SDS011;35724;49.324;-123.118;2023-05-16T07:19:52;3.40;;;3.10;;
12842;SDS011;35724;49.324;-123.118;2023-05-16T07:31:32;3.50;;;3.20;;
12842;SDS011;35724;49.324;-123.118;2023-05-16T09:16:09;3.50;;;2.60;;
12842;SDS011;35724;49.324;-123.118;2023-05-16T09:27:14;2.55;;;2.35;;
12842;SDS011;35724;49.324;-123.118;2023-05-16T10:01:50;2.22;;;2.00;;
12842;SDS011;35724;49.324;-123.118;2023-05-16T10:12:00;2.40;;;2.20;;
12842;SDS011;35724;49.324;-123.118;2023-05-16T10:22:14;1.95;;;1.75;;
12842;SDS011;35724;49.324;-123.118;2023-05-16T10:32:26;1.92;;;1.80;;
12842;SDS011;35724;49.324;-123.118;2023-05-16T10:42:40;2.20;;;1.90;;
12842;SDS011;35724;49.324;-123.118;2023-05-16T10:53:12;2.63;;;1.80;;
12842;SDS011;35724;49.324;-123.118;2023-05-16T11:03:28;2.47;;;2.10;;
12842;SDS011;35724;49.324;-123.118;2023-05-16T11:13:52;3.25;;;1.80;;
12842;SDS011;35724;49.324;-123.118;2023-05-16T11:34:42;2.10;;;1.80;;
12842;SDS011;35724;49.324;-123.118;2023-05-16T11:45:14;1.73;;;1.60;;
12842;SDS011;35724;49.324;-123.118;2023-05-16T11:55:24;1.63;;;1.52;;
12842;SDS011;35724;49.324;-123.118;2023-05-16T12:05:56;1.90;;;1.50;;
12842;SDS011;35724;49.324;-123.118;2023-05-16T12:16:11;1.88;;;1.70;;
12842;SDS011;35724;49.324;-123.118;2023-05-16T12:26:30;1.75;;;1.60;;
12842;SDS011;35724;49.324;-123.118;2023-05-16T12:36:41;1.50;;;1.30;;
12842;SDS011;35724;49.324;-123.118;2023-05-16T12:46:57;1.58;;;1.45;;
12842;SDS011;35724;49.324;-123.118;2023-05-16T12:57:17;2.60;;;1.35;;
12842;SDS011;35724;49.324;-123.118;2023-05-16T13:07:46;1.67;;;1.58;;
12842;SDS011;35724;49.324;-123.118;2023-05-16T13:18:06;1.75;;;1.50;;
12842;SDS011;35724;49.324;-123.118;2023-05-16T13:28:18;1.90;;;1.63;;
12842;SDS011;35724;49.324;-123.118;2023-05-16T13:38:38;1.70;;;1.60;;
12842;SDS011;35724;49.324;-123.118;2023-05-16T13:48:54;1.80;;;1.70;;
12842;SDS011;35724;49.324;-123.118;2023-05-16T13:59:11;2.30;;;1.70;;
12842;SDS011;35724;49.324;-123.118;2023-05-16T14:09:46;4.70;;;2.75;;
12842;SDS011;35724;49.324;-123.118;2023-05-16T14:19:53;4.03;;;2.80;;
12842;SDS011;35724;49.324;-123.118;2023-05-16T14:41:56;9.10;;;2.17;;
12842;SDS011;35724;49.324;-123.118;2023-05-16T14:52:18;6.30;;;2.47;;
12842;SDS011;35724;49.324;-123.118;2023-05-16T15:02:27;4.80;;;2.50;;
12842;SDS011;35724;49.324;-123.118;2023-05-16T15:12:34;4.28;;;2.58;;
12842;SDS011;35724;49.324;-123.118;2023-05-16T15:22:45;4.70;;;2.97;;
12842;SDS011;35724;49.324;-123.118;2023-05-16T15:32:52;4.10;;;2.70;;
12842;SDS011;35724;49.324;-123.118;2023-05-16T15:43:00;3.70;;;2.47;;
12842;SDS011;35724;49.324;-123.118;2023-05-16T15:53:08;4.13;;;2.40;;
12842;SDS011;35724;49.324;-123.118;2023-05-16T16:03:16;4.22;;;2.45;;
12842;SDS011;35724;49.324;-123.118;2023-05-16T16:13:24;3.75;;;2.35;;
12842;SDS011;35724;49.324;-123.118;2023-05-16T16:23:33;5.72;;;2.50;;
12842;SDS011;35724;49.324;-123.118;2023-05-16T16:33:39;3.45;;;2.78;;
12842;SDS011;35724;49.324;-123.118;2023-05-16T16:43:48;5.05;;;2.72;;
12842;SDS011;35724;49.324;-123.118;2023-05-16T16:53:55;5.90;;;2.80;;
12842;SDS011;35724;49.324;-123.118;2023-05-16T17:04:04;3.95;;;2.55;;
12842;SDS011;35724;49.324;-123.118;2023-05-16T17:14:12;4.78;;;2.78;;
12842;SDS011;35724;49.324;-123.118;2023-05-16T17:24:21;4.10;;;2.60;;
12842;SDS011;35724;49.324;-123.118;2023-05-16T17:34:28;3.58;;;2.17;;
12842;SDS011;35724;49.324;-123.118;2023-05-16T17:44:37;3.58;;;2.42;;
12842;SDS011;35724;49.324;-123.118;2023-05-16T17:54:43;2.97;;;2.20;;
12842;SDS011;35724;49.324;-123.118;2023-05-16T18:04:52;3.38;;;2.20;;
12842;SDS011;35724;49.324;-123.118;2023-05-16T18:14:59;3.05;;;2.10;;
12842;SDS011;35724;49.324;-123.118;2023-05-16T18:25:08;2.40;;;1.90;;
12842;SDS011;35724;49.324;-123.118;2023-05-16T18:35:16;3.40;;;2.30;;
12842;SDS011;35724;49.324;-123.118;2023-05-16T18:45:24;2.40;;;2.05;;
12842;SDS011;35724;49.324;-123.118;2023-05-16T18:55:32;2.42;;;1.90;;
12842;SDS011;35724;49.324;-123.118;2023-05-16T19:05:42;3.17;;;2.30;;
12842;SDS011;35724;49.324;-123.118;2023-05-16T19:15:50;3.25;;;2.47;;
12842;SDS011;35724;49.324;-123.118;2023-05-16T19:25:59;2.55;;;2.15;;
12842;SDS011;35724;49.324;-123.118;2023-05-16T19:36:06;3.30;;;2.20;;
12842;SDS011;35724;49.324;-123.118;2023-05-16T19:46:15;5.15;;;2.28;;
12842;SDS011;35724;49.324;-123.118;2023-05-16T19:56:22;2.10;;;1.80;;
12842;SDS011;35724;49.324;-123.118;2023-05-16T20:06:31;2.63;;;1.92;;
12842;SDS011;35724;49.324;-123.118;2023-05-16T20:16:39;4.72;;;2.28;;
12842;SDS011;35724;49.324;-123.118;2023-05-16T20:26:47;3.40;;;2.30;;
12842;SDS011;35724;49.324;-123.118;2023-05-16T20:36:55;3.85;;;2.50;;
12842;SDS011;35724;49.324;-123.118;2023-05-16T20:47:03;3.97;;;2.20;;
12842;SDS011;35724;49.324;-123.118;2023-05-16T20:57:10;4.85;;;2.25;;
12842;SDS011;35724;49.324;-123.118;2023-05-16T21:07:19;3.13;;;2.50;;
12842;SDS011;35724;49.324;-123.118;2023-05-16T21:17:26;3.05;;;2.25;;
12842;SDS011;35724;49.324;-123.118;2023-05-16T21:27:35;3.78;;;2.53;;
12842;SDS011;35724;49.324;-123.118;2023-05-16T21:37:42;3.28;;;2.30;;
12842;SDS011;35724;49.324;-123.118;2023-05-16T21:47:50;3.50;;;2.45;;
12842;SDS011;35724;49.324;-123.118;2023-05-16T21:57:57;4.07;;;2.40;;
12842;SDS011;35724;49.324;-123.118;2023-05-16T22:08:06;5.13;;;2.72;;
12842;SDS011;35724;49.324;-123.118;2023-05-16T22:18:13;6.00;;;2.60;;
12842;SDS011;35724;49.324;-123.118;2023-05-16T22:28:22;3.00;;;2.40;;
12842;SDS011;35724;49.324;-123.118;2023-05-16T22:38:29;2.97;;;2.08;;
12842;SDS011;35724;49.324;-123.118;2023-05-16T22:48:38;4.28;;;2.42;;
12842;SDS011;35724;49.324;-123.118;2023-05-16T22:58:45;3.28;;;2.25;;
12842;SDS011;35724;49.324;-123.118;2023-05-16T23:08:54;3.47;;;2.28;;
12842;SDS011;35724;49.324;-123.118;2023-05-16T23:19:03;3.33;;;2.28;;
12842;SDS011;35724;49.324;-123.118;2023-05-16T23:29:13;3.65;;;2.40;;
12842;SDS011;35724;49.324;-123.118;2023-05-16T23:39:20;2.97;;;2.30;;
12842;SDS011;35724;49.324;-123.118;2023-05-16T23:49:28;4.07;;;2.40;;
12842;SDS011;35724;49.324;-123.118;2023-05-16T23:59:36;2.83;;;2.20;;
